createdAt,value
2023-05-03T00:00:32.067Z,1.00
2023-05-03T00:03:00.807Z,1.00
2023-05-03T00:05:32.914Z,1.00
2023-05-03T00:08:01.025Z,1.00
2023-05-03T00:10:29.380Z,1.00
2023-05-03T00:12:59.557Z,1.00
2023-05-03T00:15:29.022Z,1.00
2023-05-03T00:17:57.178Z,1.00
2023-05-03T00:20:25.466Z,1.00
2023-05-03T00:22:58.131Z,1.00
2023-05-03T00:25:26.263Z,1.00
2023-05-03T00:27:54.381Z,1.00
2023-05-03T00:30:22.628Z,1.00
2023-05-03T00:32:51.567Z,1.00
2023-05-03T00:35:19.793Z,1.00
2023-05-03T00:37:47.885Z,1.00
2023-05-03T00:40:20.227Z,1.00
2023-05-03T00:42:48.338Z,1.00
2023-05-03T00:45:16.384Z,1.00
2023-05-03T00:47:44.654Z,1.00
2023-05-03T00:50:12.841Z,1.00
2023-05-03T00:52:41.736Z,1.00
2023-05-03T00:55:11.130Z,1.00
2023-05-03T00:57:40.931Z,1.00
2023-05-03T01:00:10.670Z,1.00
2023-05-03T01:02:38.894Z,1.00
2023-05-03T01:05:08.258Z,3.80
2023-05-03T01:07:46.621Z,23.10
2023-05-03T01:10:23.104Z,45.30
2023-05-03T01:12:59.493Z,73.10
2023-05-03T01:15:44.615Z,89.90
2023-05-03T01:18:13.465Z,99.90
2023-05-03T01:20:46.247Z,99.90
2023-05-03T01:23:22.982Z,99.90
2023-05-03T01:25:54.430Z,99.90
2023-05-03T01:28:22.594Z,99.90
2023-05-03T01:30:55.005Z,99.90
2023-05-03T01:33:33.573Z,99.90
2023-05-03T01:36:07.955Z,99.90
2023-05-03T01:38:38.372Z,99.90
2023-05-03T01:41:11.405Z,99.90
2023-05-03T01:43:41.359Z,99.90
2023-05-03T01:46:09.776Z,99.90
2023-05-03T01:48:37.863Z,99.90
2023-05-03T01:51:06.015Z,99.90
2023-05-03T01:53:34.116Z,99.90
2023-05-03T01:56:03.094Z,99.90
2023-05-03T01:58:32.599Z,99.90
2023-05-03T02:01:00.860Z,99.90
2023-05-03T02:03:30.159Z,99.90
2023-05-03T02:05:58.301Z,1.00
2023-05-03T02:08:26.403Z,1.00
2023-05-03T02:10:54.533Z,1.00
2023-05-03T02:13:22.622Z,1.00
2023-05-03T02:15:52.100Z,1.00
2023-05-03T02:18:20.228Z,1.00
2023-05-03T02:20:48.363Z,99.90
2023-05-03T02:23:16.460Z,1.00
2023-05-03T02:25:44.585Z,1.00
2023-05-03T02:28:14.271Z,1.00
2023-05-03T02:30:43.006Z,1.00
2023-05-03T02:33:12.701Z,1.00
2023-05-03T02:35:42.631Z,1.00
2023-05-03T02:38:10.671Z,1.00
2023-05-03T02:40:38.800Z,1.00
2023-05-03T02:43:06.997Z,1.00
2023-05-03T02:45:37.311Z,1.00
2023-05-03T02:48:05.958Z,1.00
2023-05-03T02:50:37.877Z,1.00
2023-05-03T02:53:05.983Z,1.00
2023-05-03T02:55:35.421Z,1.00
2023-05-03T02:58:04.210Z,1.00
2023-05-03T03:00:32.371Z,77.00
2023-05-03T03:03:00.543Z,99.90
2023-05-03T03:05:28.984Z,93.00
2023-05-03T03:07:59.164Z,99.90
2023-05-03T03:10:28.589Z,99.90
2023-05-03T03:12:56.636Z,99.90
2023-05-03T03:15:31.433Z,99.90
2023-05-03T03:17:59.586Z,99.90
2023-05-03T03:20:28.061Z,99.90
2023-05-03T03:22:56.530Z,99.90
2023-05-03T03:25:26.706Z,99.90
2023-05-03T03:27:58.990Z,99.90
2023-05-03T03:30:27.647Z,99.90
2023-05-03T03:33:13.260Z,99.90
2023-05-03T03:35:43.115Z,99.90
2023-05-03T03:38:12.899Z,99.90
2023-05-03T03:40:50.748Z,99.90
2023-05-03T03:43:19.044Z,99.90
2023-05-03T03:45:48.305Z,99.90
2023-05-03T03:48:18.319Z,99.90
2023-05-03T03:50:46.818Z,99.90
2023-05-03T03:53:15.688Z,99.90
2023-05-03T03:55:43.845Z,99.90
2023-05-03T03:58:13.596Z,99.90
2023-05-03T04:00:42.700Z,99.90
2023-05-03T04:03:16.647Z,99.90
2023-05-03T04:05:44.927Z,99.90
2023-05-03T04:08:13.404Z,99.90
2023-05-03T04:10:42.296Z,99.90
2023-05-03T04:13:13.842Z,99.90
2023-05-03T04:15:42.312Z,99.90
2023-05-03T04:18:10.546Z,93.20
2023-05-03T04:20:40.908Z,1.00
2023-05-03T04:23:10.421Z,99.90
2023-05-03T04:25:46.475Z,99.90
2023-05-03T04:28:16.946Z,99.90
2023-05-03T04:30:49.382Z,47.40
2023-05-03T04:33:23.076Z,1.00
2023-05-03T04:35:53.475Z,1.00
2023-05-03T04:38:22.220Z,1.00
2023-05-03T04:40:51.050Z,1.00
2023-05-03T04:43:20.973Z,1.00
2023-05-03T04:45:50.551Z,1.00
2023-05-03T04:48:22.776Z,1.00
2023-05-03T04:50:52.032Z,1.00
2023-05-03T04:53:21.598Z,1.00
2023-05-03T04:55:58.806Z,1.00
2023-05-03T04:58:28.599Z,1.00
2023-05-03T05:00:57.222Z,1.00
2023-05-03T05:03:30.345Z,1.00
2023-05-03T05:06:00.206Z,1.00
2023-05-03T05:08:28.868Z,1.00
2023-05-03T05:10:58.772Z,1.00
2023-05-03T05:13:33.218Z,1.00
2023-05-03T05:16:01.339Z,99.90
2023-05-03T05:18:29.467Z,99.90
2023-05-03T05:20:59.280Z,99.90
2023-05-03T05:23:27.842Z,99.90
2023-05-03T05:26:00.370Z,99.90
2023-05-03T05:28:32.853Z,99.90
2023-05-03T05:31:01.880Z,1.00
2023-05-03T05:33:32.034Z,99.90
2023-05-03T05:36:00.927Z,99.90
2023-05-03T05:38:34.820Z,99.90
2023-05-03T05:41:06.596Z,99.90
2023-05-03T05:43:36.393Z,99.90
2023-05-03T05:46:05.310Z,99.90
2023-05-03T05:48:33.563Z,99.90
2023-05-03T05:51:03.964Z,99.90
2023-05-03T05:53:32.193Z,99.90
2023-05-03T05:56:02.888Z,99.90
2023-05-03T05:58:34.282Z,99.90
2023-05-03T06:01:05.828Z,99.90
2023-05-03T06:03:37.829Z,99.90
2023-05-03T06:06:08.497Z,99.90
2023-05-03T06:08:37.370Z,99.90
2023-05-03T06:11:06.630Z,99.90
2023-05-03T06:13:38.412Z,99.90
2023-05-03T06:16:12.929Z,99.90
2023-05-03T06:18:41.225Z,99.90
2023-05-03T06:21:10.142Z,99.90
2023-05-03T06:23:39.778Z,99.90
2023-05-03T06:26:09.773Z,99.90
2023-05-03T06:28:37.947Z,99.90
2023-05-03T06:31:06.693Z,99.90
2023-05-03T06:33:36.259Z,99.90
2023-05-03T06:36:04.713Z,99.90
2023-05-03T06:38:32.929Z,99.90
2023-05-03T06:41:01.165Z,99.90
2023-05-03T06:43:29.511Z,99.90
2023-05-03T06:46:03.261Z,99.90
2023-05-03T06:48:31.532Z,99.90
2023-05-03T06:51:01.028Z,99.90
2023-05-03T06:53:29.232Z,99.90
2023-05-03T06:55:57.398Z,99.90
2023-05-03T06:58:25.583Z,99.90
2023-05-03T07:00:54.371Z,99.90
2023-05-03T07:03:22.505Z,99.90
2023-05-03T07:05:50.666Z,99.90
2023-05-03T07:08:20.074Z,99.90
2023-05-03T07:10:48.204Z,99.90
2023-05-03T07:13:16.277Z,99.90
2023-05-03T07:15:45.913Z,99.90
2023-05-03T07:18:14.128Z,99.90
2023-05-03T07:20:42.370Z,99.90
2023-05-03T07:23:12.850Z,99.90
2023-05-03T07:25:45.714Z,99.90
2023-05-03T07:28:13.842Z,99.90
2023-05-03T07:30:41.944Z,99.90
2023-05-03T07:33:10.112Z,99.90
2023-05-03T07:35:38.214Z,99.90
2023-05-03T07:38:06.187Z,99.90
2023-05-03T07:40:34.230Z,99.90
2023-05-03T07:43:03.652Z,99.90
2023-05-03T07:45:31.889Z,99.90
2023-05-03T07:48:00.043Z,99.90
2023-05-03T07:50:28.278Z,99.90
2023-05-03T07:52:56.540Z,99.90
2023-05-03T07:55:25.127Z,99.90
2023-05-03T07:57:58.470Z,99.90
2023-05-03T08:00:28.248Z,99.90
2023-05-03T08:02:56.748Z,99.90
2023-05-03T08:05:25.272Z,99.90
2023-05-03T08:07:53.641Z,99.90
2023-05-03T08:10:21.961Z,99.90
2023-05-03T08:12:50.353Z,99.90
2023-05-03T08:15:18.551Z,99.90
2023-05-03T08:17:48.413Z,99.90
2023-05-03T08:20:16.777Z,99.90
2023-05-03T08:22:46.469Z,99.90
2023-05-03T08:25:18.805Z,99.90
2023-05-03T08:27:47.110Z,99.90
2023-05-03T08:30:17.747Z,99.90
2023-05-03T08:32:47.361Z,99.90
2023-05-03T08:35:15.846Z,99.90
2023-05-03T08:37:45.301Z,99.90
2023-05-03T08:40:16.636Z,99.90
2023-05-03T08:42:47.557Z,99.90
2023-05-03T08:45:16.949Z,99.90
2023-05-03T08:47:45.762Z,99.90
2023-05-03T08:50:17.330Z,99.90
2023-05-03T08:52:45.611Z,99.90
2023-05-03T08:55:14.149Z,99.90
2023-05-03T08:57:42.700Z,99.90
2023-05-03T09:00:14.311Z,99.90
2023-05-03T09:02:42.835Z,99.90
2023-05-03T09:05:35.340Z,99.90
2023-05-03T09:08:04.774Z,99.90
2023-05-03T09:10:33.371Z,99.90
2023-05-03T09:13:02.557Z,99.90
2023-05-03T09:15:31.723Z,99.90
2023-05-03T09:18:09.238Z,99.90
2023-05-03T09:20:41.766Z,99.90
2023-05-03T09:23:10.827Z,99.90
2023-05-03T09:25:45.760Z,99.90
2023-05-03T09:28:17.026Z,99.90
2023-05-03T09:30:45.831Z,99.90
2023-05-03T09:33:20.385Z,99.90
2023-05-03T09:36:00.321Z,99.90
2023-05-03T09:38:29.739Z,99.90
2023-05-03T09:40:58.160Z,99.90
2023-05-03T09:43:27.565Z,99.90
2023-05-03T09:46:10.547Z,99.90
2023-05-03T09:48:38.844Z,99.90
2023-05-03T09:51:12.580Z,99.90
2023-05-03T09:53:42.418Z,99.90
2023-05-03T09:56:12.710Z,99.90
2023-05-03T09:58:41.521Z,99.90
2023-05-03T10:01:10.416Z,99.90
2023-05-03T10:03:43.837Z,99.90
2023-05-03T10:06:27.994Z,99.90
2023-05-03T10:09:06.071Z,99.90
2023-05-03T10:11:36.258Z,99.90
2023-05-03T10:14:06.705Z,99.90
2023-05-03T10:16:38.569Z,99.90
2023-05-03T10:19:14.177Z,99.90
2023-05-03T10:21:57.171Z,99.90
2023-05-03T10:24:25.496Z,99.90
2023-05-03T10:26:53.746Z,99.90
2023-05-03T10:29:48.660Z,99.90
2023-05-03T10:32:32.564Z,99.90
2023-05-03T10:35:06.690Z,99.90
2023-05-03T10:37:38.083Z,99.90
2023-05-03T10:40:14.633Z,99.90
2023-05-03T10:42:46.030Z,99.90
2023-05-03T10:45:25.683Z,99.90
2023-05-03T10:48:28.521Z,99.90
2023-05-03T10:50:57.830Z,99.90
2023-05-03T10:53:41.282Z,99.90
2023-05-03T10:56:11.579Z,99.90
2023-05-03T10:58:44.021Z,99.90
2023-05-03T11:01:13.954Z,99.90
2023-05-03T11:03:50.621Z,99.90
2023-05-03T11:06:33.666Z,99.90
2023-05-03T11:09:04.173Z,99.90
2023-05-03T11:11:32.618Z,99.90
2023-05-03T11:14:00.820Z,99.90
2023-05-03T11:16:29.413Z,99.90
2023-05-03T11:18:57.583Z,99.90
2023-05-03T11:21:26.144Z,99.90
2023-05-03T11:23:54.281Z,99.90
2023-05-03T11:26:26.268Z,99.90
2023-05-03T11:28:55.376Z,99.90
2023-05-03T11:31:23.582Z,99.90
2023-05-03T11:33:54.504Z,99.90
2023-05-03T11:36:22.673Z,99.90
2023-05-03T11:38:50.833Z,99.90
2023-05-03T11:41:19.361Z,99.90
2023-05-03T11:44:00.637Z,99.90
2023-05-03T11:46:38.588Z,99.90
2023-05-03T11:49:06.946Z,99.90
2023-05-03T11:51:35.935Z,99.90
2023-05-03T11:54:16.783Z,99.90
2023-05-03T11:56:50.312Z,99.90
2023-05-03T11:59:20.843Z,99.90
2023-05-03T12:01:49.445Z,99.90
2023-05-03T12:04:20.192Z,99.90
2023-05-03T12:06:52.838Z,99.90
2023-05-03T12:09:24.607Z,99.90
2023-05-03T12:11:58.333Z,99.90
2023-05-03T12:14:29.397Z,99.90
2023-05-03T12:17:00.172Z,99.90
2023-05-03T12:19:32.741Z,99.90
2023-05-03T12:24:34.222Z,99.90
2023-05-03T12:27:03.367Z,99.90
2023-05-03T12:29:35.461Z,99.90
2023-05-03T12:32:07.312Z,99.90
2023-05-03T12:34:36.735Z,99.90
2023-05-03T12:37:06.521Z,99.90
2023-05-03T12:39:39.204Z,99.90
2023-05-03T12:42:08.807Z,99.90
2023-05-03T12:44:42.878Z,99.90
2023-05-03T12:47:15.899Z,99.90
2023-05-03T12:49:52.261Z,99.90
2023-05-03T12:52:36.347Z,99.90
2023-05-03T12:55:11.155Z,99.90
2023-05-03T12:57:45.782Z,99.90
2023-05-03T13:00:24.583Z,99.90
2023-05-03T13:07:56.559Z,99.90
2023-05-03T13:10:26.949Z,99.90
2023-05-03T13:12:55.352Z,99.90
2023-05-03T13:15:25.202Z,99.90
2023-05-03T13:17:54.397Z,99.90
2023-05-03T13:20:22.956Z,99.90
2023-05-03T13:22:51.171Z,99.90
2023-05-03T13:25:19.245Z,99.90
2023-05-03T13:27:50.195Z,99.90
2023-05-03T13:30:21.435Z,99.90
2023-05-03T13:32:53.338Z,99.90
2023-05-03T13:35:21.478Z,99.90
2023-05-03T13:37:49.517Z,99.90
2023-05-03T13:40:17.704Z,99.90
2023-05-03T13:42:45.784Z,99.90
2023-05-03T13:45:15.293Z,99.90
2023-05-03T13:48:05.294Z,99.90
2023-05-03T13:50:32.791Z,99.90
2023-05-03T13:53:01.005Z,99.90
2023-05-03T13:55:29.118Z,99.90
2023-05-03T13:57:57.341Z,99.90
2023-05-03T14:00:25.641Z,1.00
2023-05-03T14:02:53.971Z,1.00
2023-05-03T14:05:22.131Z,1.00
2023-05-03T14:07:54.224Z,99.90
2023-05-03T14:10:22.685Z,99.90
2023-05-03T14:12:52.197Z,99.90
2023-05-03T14:15:20.426Z,1.00
2023-05-03T14:17:48.681Z,1.00
2023-05-03T14:20:19.978Z,99.90
2023-05-03T14:22:48.223Z,99.90
2023-05-03T14:25:17.735Z,1.00
2023-05-03T14:27:46.662Z,99.90
2023-05-03T14:30:15.510Z,1.00
2023-05-03T14:32:43.624Z,1.00
2023-05-03T14:35:11.687Z,1.00
2023-05-03T14:37:39.855Z,1.00
2023-05-03T14:40:09.756Z,99.90
2023-05-03T14:42:39.444Z,1.00
2023-05-03T14:45:11.656Z,1.00
2023-05-03T14:47:41.104Z,99.90
2023-05-03T14:50:10.294Z,99.90
2023-05-03T14:52:38.708Z,99.90
2023-05-03T14:55:08.394Z,99.90
2023-05-03T14:57:38.000Z,1.00
2023-05-03T15:00:14.292Z,99.90
2023-05-03T15:02:43.195Z,99.90
2023-05-03T15:05:11.920Z,99.90
2023-05-03T15:07:40.264Z,99.90
2023-05-03T15:10:10.075Z,99.90
2023-05-03T15:12:39.899Z,99.90
2023-05-03T15:15:12.086Z,1.00
2023-05-03T15:17:40.685Z,99.90
2023-05-03T15:20:13.728Z,1.00
2023-05-03T15:22:42.040Z,99.90
2023-05-03T15:25:11.102Z,99.90
2023-05-03T15:27:39.219Z,99.90
2023-05-03T15:30:12.101Z,99.90
2023-05-03T15:32:42.764Z,99.90
2023-05-03T15:35:13.308Z,99.90
2023-05-03T15:37:41.477Z,99.90
2023-05-03T15:40:11.828Z,99.90
2023-05-03T15:42:40.081Z,99.90
2023-05-03T15:45:10.829Z,99.90
2023-05-03T15:47:39.320Z,99.90
2023-05-03T15:50:09.158Z,99.90
2023-05-03T15:52:37.817Z,99.90
2023-05-03T15:55:07.008Z,99.90
2023-05-03T15:57:35.044Z,99.90
2023-05-03T16:00:06.420Z,99.90
2023-05-03T16:02:37.327Z,1.00
2023-05-03T16:05:05.856Z,99.90
2023-05-03T16:07:34.042Z,1.00
2023-05-03T16:10:02.350Z,99.90
2023-05-03T16:12:30.980Z,99.90
2023-05-03T16:14:59.077Z,99.90
2023-05-03T16:17:27.260Z,99.90
2023-05-03T16:19:56.852Z,99.90
2023-05-03T16:22:24.913Z,99.90
2023-05-03T16:24:53.630Z,99.90
2023-05-03T16:27:21.665Z,99.90
2023-05-03T16:29:49.884Z,99.90
2023-05-03T16:32:20.424Z,99.90
2023-05-03T16:34:51.963Z,99.90
2023-05-03T16:37:22.720Z,99.90
2023-05-03T16:39:50.819Z,99.90
2023-05-03T16:42:19.276Z,99.90
2023-05-03T16:44:48.061Z,99.90
2023-05-03T16:47:16.137Z,99.90
2023-05-03T16:49:44.383Z,99.90
2023-05-03T16:52:12.598Z,99.90
2023-05-03T16:54:43.335Z,99.90
2023-05-03T16:57:11.457Z,99.90
2023-05-03T16:59:39.477Z,99.90
2023-05-03T17:02:07.821Z,99.90
2023-05-03T17:04:35.971Z,99.90
2023-05-03T17:07:04.345Z,99.90
2023-05-03T17:09:32.516Z,99.90
2023-05-03T17:12:03.539Z,99.90
2023-05-03T17:14:31.892Z,99.90
2023-05-03T17:17:00.157Z,99.90
2023-05-03T17:19:30.726Z,99.90
2023-05-03T17:21:59.014Z,99.90
2023-05-03T17:24:27.261Z,99.90
2023-05-03T17:26:56.636Z,99.90
2023-05-03T17:29:26.329Z,99.90
2023-05-03T17:31:54.442Z,99.90
2023-05-03T17:34:22.663Z,99.90
2023-05-03T17:36:50.793Z,99.90
2023-05-03T17:39:18.936Z,99.90
2023-05-03T17:41:46.961Z,99.90
2023-05-03T17:44:15.179Z,99.90
2023-05-03T17:46:45.021Z,99.90
2023-05-03T17:49:13.124Z,99.90
2023-05-03T17:51:41.399Z,99.90
2023-05-03T17:54:09.494Z,99.90
2023-05-03T17:56:39.954Z,99.90
2023-05-03T17:59:08.122Z,99.90
2023-05-03T18:01:36.342Z,99.90
2023-05-03T18:04:06.125Z,99.90
2023-05-03T18:06:34.491Z,99.90
2023-05-03T18:09:02.797Z,99.90
2023-05-03T18:11:31.093Z,99.90
2023-05-03T18:13:59.197Z,99.90
2023-05-03T18:16:27.394Z,99.90
2023-05-03T18:18:55.574Z,99.90
2023-05-03T18:21:27.813Z,99.90
2023-05-03T18:23:56.375Z,99.90
2023-05-03T18:26:26.784Z,99.90
2023-05-03T18:28:54.883Z,99.90
2023-05-03T18:31:22.975Z,99.90
2023-05-03T18:33:51.135Z,99.90
2023-05-03T18:36:19.612Z,99.90
2023-05-03T18:38:53.053Z,99.90
2023-05-03T18:41:21.331Z,99.90
2023-05-03T18:43:49.492Z,99.90
2023-05-03T18:46:19.262Z,99.90
2023-05-03T18:48:47.734Z,99.90
2023-05-03T18:51:16.477Z,99.90
2023-05-03T18:53:44.835Z,99.90
2023-05-03T18:56:14.412Z,99.90
2023-05-03T18:58:42.625Z,99.90
2023-05-03T19:01:10.795Z,99.90
2023-05-03T19:03:39.160Z,99.90
2023-05-03T19:06:08.288Z,99.90
2023-05-03T19:08:36.501Z,99.90
2023-05-03T19:11:08.965Z,99.90
2023-05-03T19:13:39.040Z,99.90
2023-05-03T19:16:07.649Z,99.90
2023-05-03T19:18:37.093Z,99.90
2023-05-03T19:21:05.872Z,99.90
2023-05-03T19:23:34.021Z,99.90
2023-05-03T19:26:02.055Z,99.90
2023-05-03T19:28:31.648Z,99.90
2023-05-03T19:31:04.042Z,99.90
2023-05-03T19:33:32.454Z,99.90
2023-05-03T19:36:06.132Z,99.90
2023-05-03T19:38:36.012Z,99.90
2023-05-03T19:41:07.784Z,99.90
2023-05-03T19:43:35.865Z,99.90
2023-05-03T19:46:05.504Z,99.90
2023-05-03T19:48:34.232Z,99.90
2023-05-03T19:51:02.526Z,99.90
2023-05-03T19:53:31.424Z,99.90
2023-05-03T19:56:01.029Z,99.90
2023-05-03T19:58:32.670Z,99.90
2023-05-03T20:01:00.890Z,99.90
2023-05-03T20:03:32.859Z,99.90
2023-05-03T20:06:03.349Z,99.90
2023-05-03T20:08:32.412Z,1.00
2023-05-03T20:11:00.499Z,1.00
2023-05-03T20:13:30.143Z,1.00
2023-05-03T20:15:58.367Z,1.00
2023-05-03T20:18:26.509Z,1.00
2023-05-03T20:20:56.277Z,1.00
2023-05-03T20:23:24.762Z,1.00
2023-05-03T20:25:52.834Z,1.00
2023-05-03T20:28:20.980Z,1.00
2023-05-03T20:30:49.170Z,1.00
2023-05-03T20:33:20.404Z,1.00
2023-05-03T20:35:48.456Z,1.00
2023-05-03T20:38:17.955Z,1.00
2023-05-03T20:40:46.019Z,1.00
2023-05-03T20:43:14.406Z,1.00
2023-05-03T20:45:42.576Z,1.00
2023-05-03T20:48:10.791Z,1.00
2023-05-03T20:50:38.957Z,1.00
2023-05-03T20:53:07.035Z,1.00
2023-05-03T20:55:36.496Z,1.00
2023-05-03T20:58:04.640Z,1.00
2023-05-03T21:00:32.838Z,1.00
2023-05-03T21:03:01.236Z,1.00
2023-05-03T21:05:29.952Z,1.00
2023-05-03T21:07:58.079Z,1.00
2023-05-03T21:10:26.336Z,1.00
2023-05-03T21:12:55.825Z,1.00
2023-05-03T21:15:26.562Z,1.00
2023-05-03T21:17:54.634Z,1.00
2023-05-03T21:20:25.021Z,1.00
2023-05-03T21:22:53.764Z,1.00
2023-05-03T21:25:23.114Z,1.00
2023-05-03T21:27:51.254Z,1.00
2023-05-03T21:30:21.482Z,1.00
2023-05-03T21:32:52.400Z,1.00
2023-05-03T21:35:21.129Z,1.00
2023-05-03T21:37:51.654Z,1.00
2023-05-03T21:40:21.834Z,1.00
2023-05-03T21:42:51.582Z,1.00
2023-05-03T21:45:21.333Z,1.00
2023-05-03T21:47:49.379Z,1.00
2023-05-03T21:50:17.871Z,1.00
2023-05-03T21:52:46.074Z,1.00
2023-05-03T21:55:14.240Z,1.00
2023-05-03T21:57:42.677Z,1.00
2023-05-03T22:00:16.681Z,1.00
2023-05-03T22:02:46.244Z,1.00
2023-05-03T22:05:14.584Z,1.00
2023-05-03T22:07:42.659Z,1.00
2023-05-03T22:10:11.066Z,1.00
2023-05-03T22:12:39.160Z,1.00
2023-05-03T22:15:09.052Z,1.00
2023-05-03T22:17:37.276Z,1.00
2023-05-03T22:20:08.469Z,1.00
2023-05-03T22:22:36.667Z,1.00
2023-05-03T22:25:05.441Z,1.00
2023-05-03T22:27:33.546Z,1.00
2023-05-03T22:30:01.811Z,1.00
2023-05-03T22:32:30.105Z,1.00
2023-05-03T22:34:58.466Z,1.00
2023-05-03T22:37:27.970Z,1.00
2023-05-03T22:39:56.070Z,1.00
2023-05-03T22:42:24.107Z,1.00
2023-05-03T22:44:53.105Z,1.00
2023-05-03T22:47:22.101Z,1.00
2023-05-03T22:49:50.446Z,1.00
2023-05-03T22:52:18.651Z,1.00
2023-05-03T22:54:48.047Z,16.40
2023-05-03T22:57:16.382Z,54.30
2023-05-03T22:59:46.063Z,92.80
2023-05-03T23:02:14.685Z,99.90
2023-05-03T23:04:42.770Z,99.90
2023-05-03T23:07:10.860Z,99.90
2023-05-03T23:09:38.980Z,99.90
2023-05-03T23:12:08.610Z,99.90
2023-05-03T23:14:38.933Z,99.90
2023-05-03T23:17:07.066Z,99.90
2023-05-03T23:19:35.634Z,99.90
2023-05-03T23:22:04.221Z,1.00
2023-05-03T23:24:34.594Z,1.00
2023-05-03T23:27:02.755Z,1.00
2023-05-03T23:29:32.958Z,1.00
2023-05-03T23:32:01.425Z,43.10
2023-05-03T23:34:30.031Z,99.90
2023-05-03T23:36:58.077Z,99.90
2023-05-03T23:39:26.260Z,99.90
2023-05-03T23:41:54.348Z,99.90
2023-05-03T23:44:22.408Z,1.00
2023-05-03T23:46:51.879Z,1.00
2023-05-03T23:49:19.994Z,1.00
2023-05-03T23:51:48.077Z,17.80
2023-05-03T23:54:16.122Z,39.40
2023-05-03T23:56:44.183Z,99.90
2023-05-03T23:59:12.282Z,99.90
